Terminal Aerodrome Forecast
Issued by NWS Knoxville/Tri Cities, TN

Home | Current Version | Previous Version | Text Only | Print | Product List | Glossary On
Versions: 1 2 3 4 5 6 7 8 9 10 11 12 13 14 15 16 17 18 19 20 21 22 23 24 25 26
000
FTUS44 KMRX 141123
TAFTYS
TAF
KTYS 141123Z 1412/1512 23008KT P6SM SCT200
     FM141400 28007KT P6SM SCT040
      TEMPO 1415/1418 BKN040
     FM142000 30007KT P6SM SCT100
     FM150100 35004KT P6SM FEW070 BKN150=

USA.gov is the U.S. government's official web portal to all federal, state and local government web resources and services.